createdAt,value
2023-03-19T00:00:17.816Z,22.93
2023-03-19T00:04:21.345Z,19.90
2023-03-19T00:08:24.352Z,21.17
2023-03-19T00:12:28.676Z,20.07
2023-03-19T00:16:32.536Z,24.77
2023-03-19T00:20:37.278Z,24.40
2023-03-19T00:24:40.269Z,19.10
2023-03-19T00:28:44.892Z,22.10
2023-03-19T00:32:48.250Z,23.60
2023-03-19T00:36:51.972Z,21.33
2023-03-19T00:40:55.319Z,20.27
2023-03-19T00:44:59.735Z,19.93
2023-03-19T00:49:02.821Z,18.03
2023-03-19T00:53:06.194Z,18.23
2023-03-19T00:57:09.521Z,16.20
2023-03-19T01:01:16.420Z,14.03
2023-03-19T01:05:20.469Z,15.83
2023-03-19T01:09:23.438Z,13.37
2023-03-19T01:13:26.362Z,12.30
2023-03-19T01:17:30.812Z,14.10
2023-03-19T01:21:35.548Z,8.57
2023-03-19T01:25:40.557Z,7.33
2023-03-19T01:29:44.189Z,7.27
2023-03-19T01:33:54.940Z,6.73
2023-03-19T01:38:17.914Z,7.07
2023-03-19T01:42:23.624Z,8.97
2023-03-19T01:46:50.909Z,7.87
2023-03-19T01:51:39.493Z,8.70
2023-03-19T01:55:50.023Z,8.03
2023-03-19T02:00:08.084Z,8.20
2023-03-19T02:04:20.623Z,6.00
2023-03-19T02:08:25.771Z,7.80
2023-03-19T02:12:29.190Z,7.17
2023-03-19T02:16:32.350Z,8.83
2023-03-19T02:20:43.005Z,8.00
2023-03-19T02:24:54.491Z,8.10
2023-03-19T02:29:00.165Z,10.03
2023-03-19T02:33:12.913Z,8.00
2023-03-19T02:37:19.600Z,9.23
2023-03-19T02:41:22.964Z,9.57
2023-03-19T02:45:30.577Z,10.63
2023-03-19T02:49:33.405Z,9.70
2023-03-19T02:53:36.846Z,10.87
2023-03-19T02:57:40.199Z,11.77
2023-03-19T03:01:44.513Z,10.47
2023-03-19T03:05:47.718Z,10.10
2023-03-19T03:09:51.168Z,8.53
2023-03-19T03:13:54.153Z,10.07
2023-03-19T03:17:58.597Z,12.07
2023-03-19T03:22:01.767Z,12.07
2023-03-19T03:26:06.724Z,12.40
2023-03-19T03:30:11.871Z,12.37
2023-03-19T03:34:16.257Z,14.40
2023-03-19T03:38:19.240Z,12.37
2023-03-19T03:42:22.885Z,11.70
2023-03-19T03:46:26.476Z,12.67
2023-03-19T03:50:30.847Z,13.27
2023-03-19T03:54:39.205Z,10.90
2023-03-19T03:58:42.261Z,11.13
2023-03-19T04:02:45.862Z,10.67
2023-03-19T04:06:53.159Z,11.07
2023-03-19T04:11:08.978Z,11.87
2023-03-19T04:15:13.632Z,11.73
2023-03-19T04:19:19.206Z,10.87
2023-03-19T04:23:23.851Z,10.03
2023-03-19T04:27:27.015Z,12.07
2023-03-19T04:31:30.494Z,11.93
2023-03-19T04:35:35.144Z,11.47
2023-03-19T04:39:39.719Z,12.10
2023-03-19T04:43:42.881Z,10.97
2023-03-19T04:47:46.672Z,12.10
2023-03-19T04:51:50.036Z,15.13
2023-03-19T04:55:54.366Z,12.60
2023-03-19T04:59:57.178Z,13.03
2023-03-19T05:04:00.636Z,12.47
2023-03-19T05:08:04.430Z,13.77
2023-03-19T05:12:09.773Z,13.70
2023-03-19T05:16:18.782Z,12.73
2023-03-19T05:20:21.749Z,13.30
2023-03-19T05:24:30.820Z,12.80
2023-03-19T05:28:37.433Z,12.20
2023-03-19T05:32:41.025Z,14.23
2023-03-19T05:36:50.133Z,14.97
2023-03-19T05:40:55.153Z,12.97
2023-03-19T05:45:06.789Z,12.10
2023-03-19T05:49:22.100Z,13.90
2023-03-19T05:53:25.143Z,13.50
2023-03-19T05:57:54.088Z,14.77
2023-03-19T06:02:02.704Z,15.40
2023-03-19T06:06:08.562Z,16.17
2023-03-19T06:10:17.582Z,15.87
2023-03-19T06:14:24.501Z,15.03
2023-03-19T06:18:49.517Z,14.60
2023-03-19T06:22:52.998Z,13.43
2023-03-19T06:26:58.143Z,14.50
2023-03-19T06:31:02.079Z,13.80
2023-03-19T06:35:29.464Z,15.03
2023-03-19T06:39:33.090Z,12.87
2023-03-19T06:43:37.191Z,13.53
2023-03-19T06:47:41.963Z,13.60
2023-03-19T06:51:46.784Z,14.07
2023-03-19T06:55:49.790Z,15.27
2023-03-19T06:59:52.781Z,13.43
2023-03-19T07:03:57.273Z,15.53
2023-03-19T07:08:01.914Z,12.43
2023-03-19T07:12:05.609Z,13.90
2023-03-19T07:16:09.959Z,11.70
2023-03-19T07:20:14.174Z,12.23
2023-03-19T07:24:18.287Z,13.07
2023-03-19T07:28:21.812Z,12.27
2023-03-19T07:32:24.953Z,14.17
2023-03-19T07:36:28.117Z,12.90
2023-03-19T07:40:32.806Z,14.67
2023-03-19T07:44:35.966Z,14.00
2023-03-19T07:48:38.838Z,13.97
2023-03-19T07:52:41.898Z,14.37
2023-03-19T07:56:46.197Z,16.00
2023-03-19T08:00:49.145Z,14.53
2023-03-19T08:04:54.448Z,15.70
2023-03-19T08:08:57.581Z,14.57
2023-03-19T08:13:01.955Z,13.90
2023-03-19T08:17:05.036Z,13.00
2023-03-19T08:21:08.342Z,11.93
2023-03-19T08:25:12.133Z,12.00
2023-03-19T08:29:18.890Z,12.87
2023-03-19T08:33:22.366Z,11.27
2023-03-19T08:37:25.283Z,11.33
2023-03-19T08:41:28.265Z,13.67
2023-03-19T08:45:32.684Z,11.73
2023-03-19T08:49:35.952Z,9.83
2023-03-19T08:53:39.924Z,9.30
2023-03-19T08:57:43.106Z,8.60
2023-03-19T09:01:52.054Z,9.00
2023-03-19T09:05:54.838Z,8.60
2023-03-19T09:09:57.898Z,8.73
2023-03-19T09:14:00.815Z,8.27
2023-03-19T09:18:05.636Z,7.87
2023-03-19T09:22:08.758Z,8.13
2023-03-19T09:26:11.756Z,8.73
2023-03-19T09:30:15.247Z,9.47
2023-03-19T09:34:19.708Z,9.20
2023-03-19T09:38:23.178Z,9.13
2023-03-19T09:42:46.121Z,8.60
2023-03-19T09:46:55.684Z,7.97
2023-03-19T09:51:02.857Z,7.33
2023-03-19T09:55:15.530Z,8.03
2023-03-19T09:59:18.421Z,7.53
2023-03-19T10:03:41.228Z,7.73
2023-03-19T10:07:59.250Z,7.80
2023-03-19T10:12:21.433Z,8.40
2023-03-19T10:16:28.087Z,7.50
2023-03-19T10:20:37.755Z,7.57
2023-03-19T10:24:44.405Z,7.50
2023-03-19T10:28:57.447Z,7.47
2023-03-19T10:33:09.164Z,7.10
2023-03-19T10:37:16.692Z,8.63
2023-03-19T10:41:34.129Z,6.10
2023-03-19T10:45:39.313Z,5.60
2023-03-19T10:49:43.901Z,5.83
2023-03-19T10:53:46.939Z,6.70
2023-03-19T10:57:57.258Z,6.87
2023-03-19T11:02:03.607Z,6.43
2023-03-19T11:06:16.024Z,6.70
2023-03-19T11:10:21.689Z,7.40
2023-03-19T11:14:33.832Z,7.30
2023-03-19T11:18:39.852Z,5.97
2023-03-19T11:22:43.382Z,6.17
2023-03-19T11:26:55.977Z,5.77
2023-03-19T11:31:08.422Z,6.73
2023-03-19T11:35:16.417Z,6.27
2023-03-19T11:39:28.757Z,5.77
2023-03-19T11:44:00.580Z,4.33
2023-03-19T11:52:39.589Z,4.97
2023-03-19T11:56:47.124Z,5.20
2023-03-19T12:00:52.369Z,4.40
2023-03-19T12:05:21.081Z,4.63
2023-03-19T12:09:34.411Z,4.23
2023-03-19T12:13:53.217Z,5.27
2023-03-19T12:18:05.761Z,4.03
2023-03-19T12:22:19.810Z,4.13
2023-03-19T12:26:34.436Z,4.00
2023-03-19T12:30:42.666Z,4.00
2023-03-19T12:34:51.113Z,3.03
2023-03-19T12:38:59.067Z,3.23
2023-03-19T12:43:15.081Z,3.10
2023-03-19T12:47:22.484Z,3.77
2023-03-19T12:51:29.779Z,3.27
2023-03-19T12:55:42.919Z,3.30
2023-03-19T12:59:54.229Z,3.10
2023-03-19T13:04:03.292Z,3.67
2023-03-19T13:08:13.913Z,3.27
2023-03-19T13:12:23.735Z,3.50
2023-03-19T13:16:39.701Z,2.50
2023-03-19T13:20:58.512Z,2.60
2023-03-19T13:25:02.643Z,3.10
2023-03-19T13:29:14.604Z,2.43
2023-03-19T13:33:23.094Z,2.43
2023-03-19T13:37:27.787Z,2.40
2023-03-19T13:41:49.701Z,2.27
2023-03-19T13:45:54.078Z,2.07
2023-03-19T13:50:21.498Z,1.83
2023-03-19T13:54:34.646Z,1.80
2023-03-19T13:58:52.034Z,1.90
2023-03-19T14:02:55.164Z,1.60
2023-03-19T14:07:10.509Z,1.50
2023-03-19T14:11:24.576Z,2.03
2023-03-19T14:15:30.599Z,2.00
2023-03-19T14:19:41.905Z,2.80
2023-03-19T14:23:54.980Z,3.00
2023-03-19T14:28:02.208Z,1.93
2023-03-19T14:32:10.538Z,2.97
2023-03-19T14:36:18.593Z,2.93
2023-03-19T14:40:25.415Z,2.03
2023-03-19T14:44:46.376Z,2.60
2023-03-19T14:49:28.923Z,3.27
2023-03-19T14:53:39.229Z,3.20
2023-03-19T14:57:43.790Z,3.03
2023-03-19T15:01:53.469Z,5.37
2023-03-19T15:06:00.276Z,4.30
2023-03-19T15:10:06.527Z,3.27
2023-03-19T15:14:37.303Z,4.17
2023-03-19T15:18:40.701Z,3.73
2023-03-19T15:22:44.364Z,3.97
2023-03-19T15:26:49.026Z,3.80
2023-03-19T15:31:20.292Z,3.30
2023-03-19T15:35:32.027Z,7.83
2023-03-19T15:39:38.070Z,9.63
2023-03-19T15:43:43.438Z,9.43
2023-03-19T15:47:51.198Z,10.40
2023-03-19T15:51:58.461Z,12.23
2023-03-19T15:56:03.895Z,14.20
2023-03-19T16:00:10.498Z,15.07
2023-03-19T16:04:25.513Z,19.83
2023-03-19T16:08:29.878Z,20.23
2023-03-19T16:12:39.855Z,24.80
2023-03-19T16:16:43.347Z,25.07
2023-03-19T16:21:11.393Z,25.13
2023-03-19T16:25:31.874Z,20.70
2023-03-19T16:29:39.385Z,21.40
2023-03-19T16:33:43.196Z,18.90
2023-03-19T16:37:48.813Z,18.67
2023-03-19T16:42:17.409Z,24.23
2023-03-19T16:46:28.944Z,21.37
2023-03-19T16:50:34.890Z,18.57
2023-03-19T16:54:39.341Z,20.23
2023-03-19T16:58:44.497Z,17.90
2023-03-19T17:02:47.586Z,18.43
2023-03-19T17:06:51.445Z,20.23
2023-03-19T17:10:56.738Z,20.17
2023-03-19T17:15:17.704Z,22.13
2023-03-19T17:19:36.059Z,20.07
2023-03-19T17:23:39.241Z,19.93
2023-03-19T17:27:43.476Z,19.83
2023-03-19T17:31:46.697Z,21.07
2023-03-19T17:35:50.081Z,24.33
2023-03-19T17:39:53.008Z,26.13
2023-03-19T17:43:57.453Z,27.90
2023-03-19T17:48:00.619Z,27.83
2023-03-19T17:52:04.950Z,25.23
2023-03-19T17:56:16.548Z,21.63
2023-03-19T18:00:23.848Z,27.17
2023-03-19T18:04:27.052Z,23.30
2023-03-19T18:08:30.563Z,25.30
2023-03-19T18:12:34.527Z,22.23
2023-03-19T18:16:39.001Z,20.67
2023-03-19T18:20:43.031Z,18.83
2023-03-19T18:24:46.589Z,22.07
2023-03-19T18:28:49.627Z,19.37
2023-03-19T18:32:59.345Z,22.87
2023-03-19T18:37:03.042Z,21.50
2023-03-19T18:41:06.247Z,21.20
2023-03-19T18:45:37.597Z,20.63
2023-03-19T18:49:42.305Z,20.00
2023-03-19T18:53:45.996Z,19.33
2023-03-19T18:57:54.182Z,20.27
2023-03-19T19:02:01.717Z,21.50
2023-03-19T19:06:07.028Z,22.93
2023-03-19T19:10:11.228Z,18.90
2023-03-19T19:14:21.814Z,18.23
2023-03-19T19:18:28.243Z,18.23
2023-03-19T19:22:34.072Z,22.17
2023-03-19T19:26:37.483Z,21.10
2023-03-19T19:30:41.556Z,18.37
2023-03-19T19:34:44.475Z,20.13
2023-03-19T19:38:51.878Z,19.30
2023-03-19T19:42:55.239Z,22.03
2023-03-19T19:47:00.893Z,20.17
2023-03-19T19:51:04.730Z,20.63
2023-03-19T19:55:10.729Z,25.67
2023-03-19T19:59:16.056Z,26.80
2023-03-19T20:03:24.277Z,26.13
2023-03-19T20:07:28.273Z,20.97
2023-03-19T20:11:32.754Z,24.93
2023-03-19T20:15:36.862Z,24.07
2023-03-19T20:19:40.561Z,24.73
2023-03-19T20:23:45.442Z,24.40
2023-03-19T20:27:54.310Z,29.97
2023-03-19T20:31:58.380Z,34.47
2023-03-19T20:36:03.223Z,34.90
2023-03-19T20:40:07.687Z,29.30
2023-03-19T20:44:21.541Z,32.23
2023-03-19T20:48:27.264Z,31.23
2023-03-19T20:52:32.078Z,33.70
2023-03-19T20:56:38.111Z,29.87
2023-03-19T21:00:43.070Z,35.60
2023-03-19T21:04:47.534Z,37.50
2023-03-19T21:08:53.374Z,37.50
2023-03-19T21:12:56.721Z,36.77
2023-03-19T21:17:01.961Z,39.47
2023-03-19T21:21:05.274Z,36.63
2023-03-19T21:25:19.382Z,37.40
2023-03-19T21:29:29.805Z,41.03
2023-03-19T21:33:36.141Z,42.70
2023-03-19T21:37:40.488Z,33.60
2023-03-19T21:41:44.762Z,37.67
2023-03-19T21:45:50.197Z,37.17
2023-03-19T21:49:54.905Z,40.67
2023-03-19T21:53:58.495Z,36.53
2023-03-19T21:58:01.579Z,39.93
2023-03-19T22:02:04.586Z,35.80
2023-03-19T22:06:09.728Z,42.67
2023-03-19T22:10:13.751Z,41.23
2023-03-19T22:14:20.648Z,38.23
2023-03-19T22:18:23.829Z,38.70
2023-03-19T22:22:28.247Z,34.53
2023-03-19T22:26:33.681Z,42.30
2023-03-19T22:30:38.873Z,40.93
2023-03-19T22:34:41.776Z,39.70
2023-03-19T22:38:48.660Z,40.00
2023-03-19T22:42:51.974Z,34.90
2023-03-19T22:46:56.456Z,39.10
2023-03-19T22:50:59.555Z,38.27
2023-03-19T22:55:05.566Z,33.60
2023-03-19T22:59:10.199Z,37.53
2023-03-19T23:03:18.844Z,40.33
2023-03-19T23:07:21.891Z,35.03
2023-03-19T23:11:27.204Z,42.07
2023-03-19T23:15:31.854Z,46.43
2023-03-19T23:19:36.602Z,40.43
2023-03-19T23:23:39.405Z,50.77
2023-03-19T23:27:46.045Z,43.13
2023-03-19T23:31:49.238Z,43.57
2023-03-19T23:35:54.012Z,42.60
2023-03-19T23:39:58.771Z,45.00
2023-03-19T23:44:08.639Z,46.60
2023-03-19T23:48:15.916Z,44.47
2023-03-19T23:52:18.871Z,42.43
2023-03-19T23:56:24.513Z,46.67
